Time;durP1;ratioP1;P1;durP2;ratioP2;P2;SDS_P1;SDS_P2;PMS_P1;PMS_P2;Temp;Humidity;BMP_temperature;BMP_pressure;BME280_temperature;BME280_humidity;BME280_pressure;Samples;Min_cycle;Max_cycle;Signal;HPM_P1;HPM_P2
2020/12/10 00:01:49;;;;;;;33.08;20.67;;;3.80;99.90;;;;;;5066879;28;20335;-74
2020/12/10 00:04:35;;;;;;;29.38;19.70;;;3.80;99.90;;;;;;5067301;28;20286;-74
2020/12/10 00:07:22;;;;;;;31.65;21.58;;;3.70;99.90;;;;;;5058391;28;20266;-74
2020/12/10 00:10:09;;;;;;;45.08;21.30;;;3.70;99.90;;;;;;5066260;28;20212;-74
2020/12/10 00:12:56;;;;;;;34.15;20.83;;;3.70;99.90;;;;;;5060728;28;20593;-74
2020/12/10 00:15:41;;;;;;;37.92;23.45;;;3.40;99.90;;;;;;5058928;28;20323;-74
2020/12/10 00:18:26;;;;;;;38.20;22.65;;;3.20;99.90;;;;;;5071086;28;20585;-74
2020/12/10 00:21:12;;;;;;;30.25;20.40;;;3.00;99.90;;;;;;5061011;28;20195;-74
2020/12/10 00:23:57;;;;;;;32.53;22.63;;;3.10;99.90;;;;;;5061635;28;20226;-74
2020/12/10 00:26:42;;;;;;;36.00;20.70;;;3.20;99.90;;;;;;5064712;28;20200;-74
2020/12/10 00:29:28;;;;;;;38.75;24.02;;;3.20;99.90;;;;;;5067461;28;20196;-74
2020/12/10 00:32:13;;;;;;;35.60;22.77;;;3.20;99.90;;;;;;5062402;28;20204;-74
2020/12/10 00:34:59;;;;;;;37.85;23.67;;;3.20;99.90;;;;;;5068220;28;20209;-74
2020/12/10 00:37:44;;;;;;;35.45;21.88;;;3.30;99.90;;;;;;5065252;28;20228;-74
2020/12/10 00:40:29;;;;;;;33.95;22.80;;;3.20;99.90;;;;;;5069733;28;20212;-74
2020/12/10 00:43:14;;;;;;;37.25;23.63;;;3.10;99.90;;;;;;5070935;28;20204;-74
2020/12/10 00:46:03;;;;;;;33.60;21.70;;;3.20;99.90;;;;;;5072177;28;20682;-74
2020/12/10 00:48:48;;;;;;;35.00;22.45;;;3.20;99.90;;;;;;5066725;28;20212;-74
2020/12/10 00:51:33;;;;;;;36.08;23.17;;;3.20;99.90;;;;;;5070385;28;20678;-74
2020/12/10 00:54:20;;;;;;;40.50;24.05;;;3.30;99.90;;;;;;5054795;28;20204;-74
2020/12/10 00:57:09;;;;;;;33.25;21.23;;;3.40;99.90;;;;;;5066878;28;20773;-74
2020/12/10 00:59:54;;;;;;;29.63;20.88;;;3.60;99.90;;;;;;5061161;28;20324;-74
2020/12/10 01:02:40;;;;;;;32.60;21.35;;;3.70;99.90;;;;;;5067577;28;20268;-74
2020/12/10 01:05:25;;;;;;;32.63;21.92;;;3.70;99.90;;;;;;5064672;28;20267;-74
2020/12/10 01:08:10;;;;;;;34.08;22.60;;;3.80;99.90;;;;;;5061866;28;20310;-74
2020/12/10 01:10:55;;;;;;;31.58;20.40;;;3.70;99.90;;;;;;5064307;28;20679;-74
2020/12/10 01:13:40;;;;;;;32.22;21.20;;;3.70;99.90;;;;;;5068101;28;20196;-74
2020/12/10 01:16:26;;;;;;;35.72;22.70;;;3.80;99.90;;;;;;5065436;28;20200;-74
2020/12/10 01:19:12;;;;;;;36.97;23.00;;;3.80;99.90;;;;;;5057176;28;20215;-74
2020/12/10 01:21:57;;;;;;;33.40;22.10;;;3.80;99.90;;;;;;5063954;28;20254;-74
2020/12/10 01:24:42;;;;;;;32.47;21.95;;;3.80;99.90;;;;;;5066735;28;20266;-75
2020/12/10 01:27:27;;;;;;;31.73;22.08;;;3.80;99.90;;;;;;5072053;28;20227;-75
2020/12/10 01:30:12;;;;;;;36.75;23.08;;;3.90;99.90;;;;;;5055425;28;20323;-74
2020/12/10 01:32:57;;;;;;;34.30;22.15;;;3.70;99.90;;;;;;5062563;28;20205;-74
2020/12/10 01:35:43;;;;;;;36.88;21.40;;;3.60;99.90;;;;;;5069406;28;20195;-74
2020/12/10 01:38:29;;;;;;;34.15;21.63;;;3.40;99.90;;;;;;5070770;28;20231;-74
2020/12/10 01:41:14;;;;;;;35.85;22.20;;;3.30;99.90;;;;;;5065784;28;20626;-74
2020/12/10 01:44:01;;;;;;;35.13;22.95;;;3.20;99.90;;;;;;5068464;28;20204;-74
2020/12/10 01:46:46;;;;;;;35.50;23.52;;;3.20;99.90;;;;;;5069282;28;20200;-74
2020/12/10 01:49:34;;;;;;;38.25;23.80;;;3.30;99.90;;;;;;5066721;28;20199;-74
2020/12/10 01:52:20;;;;;;;32.85;21.50;;;3.40;99.90;;;;;;5061084;28;20207;-74
2020/12/10 01:55:05;;;;;;;30.52;20.95;;;3.60;99.90;;;;;;5060756;28;20695;-74
2020/12/10 01:57:50;;;;;;;35.58;22.45;;;3.80;99.90;;;;;;5058609;28;20228;-74
2020/12/10 02:00:35;;;;;;;35.03;22.45;;;3.80;99.90;;;;;;5064343;28;20208;-74
2020/12/10 02:03:20;;;;;;;35.20;23.63;;;3.80;99.90;;;;;;5062558;28;20216;-74
2020/12/10 02:06:05;;;;;;;30.27;20.30;;;3.80;99.90;;;;;;5063662;28;20271;-74
2020/12/10 02:08:52;;;;;;;36.78;23.27;;;3.60;99.90;;;;;;5055713;28;20225;-74
2020/12/10 02:11:36;;;;;;;36.35;21.95;;;3.50;99.90;;;;;;5065274;28;20196;-74
2020/12/10 02:14:22;;;;;;;34.53;22.73;;;3.50;99.90;;;;;;5047433;28;20559;-75
2020/12/10 02:17:08;;;;;;;30.25;20.33;;;3.60;99.90;;;;;;5054016;28;20227;-74
2020/12/10 02:19:53;;;;;;;37.35;23.20;;;3.60;99.90;;;;;;5064982;28;20216;-74
2020/12/10 02:22:38;;;;;;;38.80;24.23;;;3.50;99.90;;;;;;5063205;28;20200;-74
2020/12/10 02:25:24;;;;;;;35.47;23.77;;;3.30;99.90;;;;;;5057644;28;20342;-74
2020/12/10 02:28:11;;;;;;;46.63;22.90;;;3.40;99.90;;;;;;5065945;28;20725;-74
2020/12/10 02:30:56;;;;;;;38.00;24.55;;;3.40;99.90;;;;;;5060238;28;20204;-74
2020/12/10 02:33:41;;;;;;;39.10;23.20;;;3.50;99.90;;;;;;5066236;28;20223;-74
2020/12/10 02:36:27;;;;;;;36.05;22.55;;;3.60;99.90;;;;;;5064534;28;20278;-74
2020/12/10 02:39:12;;;;;;;38.28;22.70;;;3.60;99.90;;;;;;5053966;28;20722;-74
2020/12/10 02:41:58;;;;;;;36.88;23.08;;;3.50;99.90;;;;;;5063837;28;20211;-74
2020/12/10 02:44:43;;;;;;;34.85;23.33;;;3.30;99.90;;;;;;5069248;28;20737;-74
2020/12/10 02:47:28;;;;;;;34.22;22.55;;;3.20;99.90;;;;;;5067182;28;20220;-74
2020/12/10 02:50:13;;;;;;;39.95;23.95;;;3.20;99.90;;;;;;5059498;28;20203;-74
2020/12/10 02:52:58;;;;;;;36.45;23.23;;;3.20;99.90;;;;;;5064699;28;20224;-74
2020/12/10 02:55:43;;;;;;;34.03;22.48;;;3.20;99.90;;;;;;5062934;28;20208;-75
2020/12/10 02:58:29;;;;;;;32.45;22.80;;;3.30;99.90;;;;;;5064243;28;20718;-74
2020/12/10 03:01:14;;;;;;;32.35;21.63;;;3.20;99.90;;;;;;5056644;28;20204;-73
2020/12/10 03:03:59;;;;;;;31.67;20.98;;;3.30;99.90;;;;;;5058494;28;20635;-74
2020/12/10 03:06:44;;;;;;;34.65;22.45;;;3.40;99.90;;;;;;5067621;28;20205;-74
2020/12/10 03:09:29;;;;;;;35.50;22.48;;;3.40;99.90;;;;;;5070536;28;20255;-74
2020/12/10 03:12:14;;;;;;;35.97;23.48;;;3.30;99.90;;;;;;5065201;28;20338;-74
2020/12/10 03:15:00;;;;;;;36.47;23.25;;;3.20;99.90;;;;;;5065162;28;20228;-74
2020/12/10 03:17:45;;;;;;;36.00;23.48;;;3.30;99.90;;;;;;5066503;28;20255;-74
2020/12/10 03:20:30;;;;;;;42.00;24.88;;;3.20;99.90;;;;;;5066371;28;20575;-74
2020/12/10 03:23:15;;;;;;;37.03;22.83;;;3.10;99.90;;;;;;5066511;28;20935;-74
2020/12/10 03:26:00;;;;;;;35.20;23.45;;;3.10;99.90;;;;;;5060458;28;20204;-74
2020/12/10 03:28:45;;;;;;;39.63;24.50;;;3.10;99.90;;;;;;5064223;28;20279;-74
2020/12/10 03:31:32;;;;;;;38.97;24.35;;;3.30;99.90;;;;;;5064856;28;20205;-74
2020/12/10 03:34:19;;;;;;;39.80;23.77;;;3.30;99.90;;;;;;5060065;28;20278;-74
2020/12/10 03:37:04;;;;;;;43.75;25.33;;;3.10;99.90;;;;;;5065170;28;20200;-74
2020/12/10 03:39:50;;;;;;;37.90;23.67;;;3.10;99.90;;;;;;5077454;28;20702;-74
2020/12/10 03:42:35;;;;;;;33.72;21.42;;;3.30;99.90;;;;;;5069051;28;20203;-74
2020/12/10 03:45:20;;;;;;;42.20;24.63;;;3.40;99.90;;;;;;5060218;28;20211;-74
2020/12/10 03:48:06;;;;;;;35.50;22.70;;;3.40;99.90;;;;;;5067917;28;20313;-74
2020/12/10 03:50:51;;;;;;;42.63;24.05;;;3.20;99.90;;;;;;5074083;28;20208;-74
2020/12/10 03:53:36;;;;;;;38.15;23.73;;;3.10;99.90;;;;;;5063947;28;20207;-74
2020/12/10 03:56:21;;;;;;;38.65;23.50;;;3.20;99.90;;;;;;5061800;28;20212;-74
2020/12/10 03:59:06;;;;;;;38.10;24.20;;;3.30;99.90;;;;;;5068463;28;20231;-74
2020/12/10 04:01:51;;;;;;;42.65;25.10;;;3.20;99.90;;;;;;5072893;28;20200;-74
2020/12/10 04:04:37;;;;;;;42.25;27.05;;;3.20;99.90;;;;;;5065530;28;20295;-74
2020/12/10 04:07:22;;;;;;;43.28;25.35;;;3.20;99.90;;;;;;5061079;28;20224;-74
2020/12/10 04:10:07;;;;;;;34.75;22.02;;;3.20;99.90;;;;;;5066937;28;20200;-74
2020/12/10 04:12:53;;;;;;;35.65;22.50;;;3.30;99.90;;;;;;5065877;28;20212;-74
2020/12/10 04:15:38;;;;;;;38.17;24.10;;;3.40;99.90;;;;;;5070105;28;20207;-74
2020/12/10 04:18:23;;;;;;;38.75;24.30;;;3.60;99.90;;;;;;5065862;28;20252;-74
2020/12/10 04:21:10;;;;;;;37.58;23.60;;;3.60;99.90;;;;;;5064877;28;20208;-74
2020/12/10 04:23:54;;;;;;;39.25;24.27;;;3.60;99.90;;;;;;5061309;28;20246;-75
2020/12/10 04:26:39;;;;;;;38.13;23.75;;;3.70;99.90;;;;;;5067221;28;20208;-74
2020/12/10 04:29:25;;;;;;;39.38;24.65;;;3.60;99.90;;;;;;5066165;28;20196;-74
2020/12/10 04:32:10;;;;;;;37.75;21.52;;;3.70;99.90;;;;;;5064236;28;20204;-74
2020/12/10 04:34:55;;;;;;;36.47;23.10;;;3.60;99.90;;;;;;5070510;28;20212;-74
2020/12/10 04:37:41;;;;;;;36.80;23.70;;;3.50;99.90;;;;;;5064179;28;20216;-74
2020/12/10 04:40:27;;;;;;;38.00;23.45;;;3.40;99.90;;;;;;5063649;28;20215;-74
2020/12/10 04:43:13;;;;;;;42.03;25.15;;;3.30;99.90;;;;;;5069725;28;20207;-74
2020/12/10 04:46:00;;;;;;;37.50;23.88;;;3.40;99.90;;;;;;5067514;28;20802;-74
2020/12/10 04:48:46;;;;;;;35.60;21.98;;;3.50;99.90;;;;;;5068875;28;20235;-74
2020/12/10 04:51:34;;;;;;;34.20;22.95;;;3.60;99.90;;;;;;5065445;28;20201;-74
2020/12/10 04:54:20;;;;;;;32.13;21.98;;;3.70;99.90;;;;;;5064432;28;20205;-74
2020/12/10 04:57:10;;;;;;;39.05;21.77;;;3.60;99.90;;;;;;5061594;28;20251;-74
2020/12/10 04:59:55;;;;;;;35.28;22.90;;;3.50;99.90;;;;;;5061525;28;20201;-73
2020/12/10 05:02:40;;;;;;;38.05;23.23;;;3.30;99.90;;;;;;5066414;28;20667;-74
2020/12/10 05:05:27;;;;;;;33.30;23.13;;;3.20;99.90;;;;;;5067238;28;20204;-74
2020/12/10 05:08:12;;;;;;;31.05;21.20;;;3.20;99.90;;;;;;5063669;28;20220;-74
2020/12/10 05:10:59;;;;;;;35.33;22.38;;;3.10;99.90;;;;;;5059705;28;20205;-74
2020/12/10 05:13:53;;;;;;;31.92;20.52;;;3.10;99.90;;;;;;5062960;28;20283;-74
2020/12/10 05:16:39;;;;;;;34.85;21.88;;;3.20;99.90;;;;;;5057880;28;20870;-74
2020/12/10 05:19:23;;;;;;;37.70;20.67;;;3.30;99.90;;;;;;5062852;28;20273;-74
2020/12/10 05:22:09;;;;;;;34.58;21.23;;;3.40;99.90;;;;;;5063844;28;20204;-74
2020/12/10 05:25:00;;;;;;;35.15;22.27;;;3.60;99.90;;;;;;5058449;28;20582;-74
2020/12/10 05:27:59;;;;;;;35.92;23.48;;;3.70;99.90;;;;;;5065899;28;20228;-74
2020/12/10 05:30:46;;;;;;;31.65;21.60;;;3.70;99.90;;;;;;5062827;28;20724;-74
2020/12/10 05:33:31;;;;;;;34.47;22.02;;;3.50;99.90;;;;;;5064547;28;20288;-75
2020/12/10 05:36:16;;;;;;;31.17;20.95;;;3.40;99.90;;;;;;5058254;28;20212;-74
2020/12/10 05:39:04;;;;;;;34.00;22.27;;;3.40;99.90;;;;;;5065192;28;20279;-74
2020/12/10 05:41:54;;;;;;;33.08;22.33;;;3.20;99.90;;;;;;5051677;28;20703;-74
2020/12/10 05:44:41;;;;;;;37.03;23.40;;;3.20;99.90;;;;;;5069414;28;20204;-74
2020/12/10 05:47:29;;;;;;;33.10;22.35;;;3.20;99.90;;;;;;5063943;28;20414;-74
2020/12/10 05:50:15;;;;;;;37.42;23.90;;;3.20;99.90;;;;;;5056437;28;20327;-74
2020/12/10 05:53:09;;;;;;;31.55;20.77;;;3.00;99.90;;;;;;5064478;28;20698;-74
2020/12/10 05:55:59;;;;;;;34.38;22.38;;;2.90;99.90;;;;;;5063418;28;20204;-74
2020/12/10 05:58:53;;;;;;;39.13;22.33;;;2.80;99.90;;;;;;5063636;28;20227;-74
2020/12/10 06:01:39;;;;;;;37.10;22.15;;;2.90;99.90;;;;;;5062215;28;20778;-74
2020/12/10 06:04:25;;;;;;;38.63;23.58;;;3.00;99.90;;;;;;5060639;28;20274;-74
2020/12/10 06:07:11;;;;;;;35.65;22.67;;;3.10;99.90;;;;;;5060799;28;20718;-74
2020/12/10 06:09:59;;;;;;;37.78;22.48;;;3.00;99.90;;;;;;5059752;28;20212;-75
2020/12/10 06:12:50;;;;;;;35.38;20.90;;;2.90;99.90;;;;;;5064011;28;20686;-74
2020/12/10 06:15:35;;;;;;;32.35;21.00;;;2.80;99.90;;;;;;5062165;28;20257;-74
2020/12/10 06:18:22;;;;;;;33.83;20.85;;;2.80;99.90;;;;;;5062502;28;20355;-74
2020/12/10 06:21:33;;;;;;;37.10;22.42;;;3.00;99.90;;;;;;5053034;28;20615;-74
2020/12/10 06:24:35;;;;;;;39.08;22.92;;;3.00;99.90;;;;;;5051598;28;20259;-74
2020/12/10 06:27:29;;;;;;;35.22;22.25;;;3.00;99.90;;;;;;5062688;28;20235;-74
2020/12/10 06:30:16;;;;;;;34.80;22.67;;;3.00;99.90;;;;;;5066128;28;20289;-74
2020/12/10 06:33:01;;;;;;;32.40;22.58;;;3.10;99.90;;;;;;5060115;28;20873;-74
2020/12/10 06:35:47;;;;;;;33.85;21.48;;;3.10;99.90;;;;;;5058261;28;20212;-74
2020/12/10 06:38:42;;;;;;;35.35;22.63;;;3.00;99.90;;;;;;5049806;28;20704;-75
2020/12/10 06:41:27;;;;;;;37.58;25.30;;;2.90;99.90;;;;;;5063929;28;20712;-74
2020/12/10 06:44:31;;;;;;;35.67;23.58;;;2.90;99.90;;;;;;5066241;28;21035;-74
2020/12/10 06:47:17;;;;;;;45.70;24.98;;;3.00;99.90;;;;;;5052857;28;20596;-75
2020/12/10 06:50:21;;;;;;;36.17;24.45;;;2.90;99.90;;;;;;5062509;28;20207;-75
2020/12/10 06:53:18;;;;;;;42.83;28.25;;;2.80;99.90;;;;;;5065967;28;20798;-75
2020/12/10 06:56:07;;;;;;;34.20;22.23;;;2.80;99.90;;;;;;5071114;28;20196;-74
2020/12/10 06:58:58;;;;;;;35.97;24.15;;;2.80;99.90;;;;;;5050722;28;20224;-74
2020/12/10 07:01:43;;;;;;;40.00;22.90;;;2.70;99.90;;;;;;5048376;28;20228;-73
2020/12/10 07:04:46;;;;;;;44.22;27.25;;;2.80;99.90;;;;;;5057578;28;20211;-74
2020/12/10 07:07:31;;;;;;;39.22;24.45;;;2.90;99.90;;;;;;5055375;28;20224;-75
2020/12/10 07:10:17;;;;;;;40.72;24.42;;;3.10;99.90;;;;;;5065191;28;20262;-74
2020/12/10 07:13:02;;;;;;;39.47;24.70;;;3.00;99.90;;;;;;5069457;28;20223;-74
2020/12/10 07:15:48;;;;;;;25.48;16.55;;;3.00;99.90;;;;;;5067428;28;20203;-74
2020/12/10 07:18:34;;;;;;;24.50;14.77;;;3.00;99.90;;;;;;5066594;28;20228;-74
2020/12/10 07:21:20;;;;;;;15.65;9.73;;;3.00;99.90;;;;;;5062428;28;20208;-74
2020/12/10 07:24:05;;;;;;;13.93;9.15;;;3.20;99.90;;;;;;5065648;28;20618;-74
2020/12/10 07:26:51;;;;;;;11.95;7.68;;;3.30;99.90;;;;;;5068426;28;20737;-74
2020/12/10 07:29:36;;;;;;;12.77;8.35;;;3.10;99.90;;;;;;5067859;28;20699;-74
2020/12/10 07:32:21;;;;;;;24.08;14.85;;;3.20;99.90;;;;;;5066639;28;20208;-74
2020/12/10 07:35:06;;;;;;;22.70;15.10;;;3.30;99.90;;;;;;5064179;28;20328;-74
2020/12/10 07:37:51;;;;;;;19.35;12.65;;;3.30;99.90;;;;;;5069371;28;20369;-75
2020/12/10 07:40:37;;;;;;;15.05;9.70;;;3.40;99.90;;;;;;5070536;28;20203;-74
2020/12/10 07:43:25;;;;;;;11.07;7.28;;;3.30;99.90;;;;;;5047659;28;20255;-74
2020/12/10 07:46:11;;;;;;;10.80;7.10;;;3.30;99.90;;;;;;5047621;28;20240;-74
2020/12/10 07:48:56;;;;;;;10.40;7.57;;;3.30;99.90;;;;;;5051958;28;20797;-75
2020/12/10 07:51:41;;;;;;;12.40;8.90;;;3.20;99.90;;;;;;5070409;28;20254;-74
2020/12/10 07:54:27;;;;;;;11.60;7.80;;;3.30;99.90;;;;;;5066328;28;20207;-74
2020/12/10 07:57:26;;;;;;;12.45;8.00;;;3.40;99.90;;;;;;5067327;28;20646;-74
2020/12/10 08:00:16;;;;;;;15.25;10.60;;;3.40;99.90;;;;;;5065928;28;20216;-74
2020/12/10 08:03:18;;;;;;;18.60;11.20;;;3.30;99.90;;;;;;5065710;28;20207;-74
2020/12/10 08:06:08;;;;;;;18.90;11.35;;;3.20;99.90;;;;;;5053350;28;20201;-74
2020/12/10 08:08:58;;;;;;;14.73;11.07;;;3.10;99.90;;;;;;5056227;28;20221;-75
2020/12/10 08:11:50;;;;;;;17.52;11.00;;;3.10;99.90;;;;;;5069395;28;20266;-74
2020/12/10 08:14:36;;;;;;;21.50;11.35;;;3.10;99.90;;;;;;5069396;28;20569;-75
2020/12/10 08:17:22;;;;;;;15.50;10.15;;;3.00;99.90;;;;;;5073701;28;20334;-74
2020/12/10 08:20:07;;;;;;;18.58;11.10;;;3.10;99.90;;;;;;5069338;28;20204;-74
2020/12/10 08:23:00;;;;;;;19.75;12.00;;;3.20;99.90;;;;;;5070941;28;20208;-74
2020/12/10 08:25:47;;;;;;;15.18;9.38;;;3.30;99.90;;;;;;5060122;28;20589;-74
2020/12/10 08:28:32;;;;;;;14.20;9.82;;;3.30;99.90;;;;;;5073357;28;20778;-74
2020/12/10 08:31:20;;;;;;;16.08;9.50;;;3.10;99.90;;;;;;5073452;28;20247;-74
2020/12/10 08:34:16;;;;;;;17.20;11.40;;;3.00;99.90;;;;;;5070607;28;20208;-74
2020/12/10 08:37:05;;;;;;;15.70;9.23;;;3.00;99.90;;;;;;5070566;28;20216;-74
2020/12/10 08:39:53;;;;;;;17.63;10.35;;;3.10;99.90;;;;;;5074320;28;20219;-74
2020/12/10 08:42:39;;;;;;;15.70;10.23;;;3.10;99.90;;;;;;5073375;28;20204;-74
2020/12/10 08:45:32;;;;;;;17.67;11.90;;;3.20;99.90;;;;;;5072005;28;20196;-74
2020/12/10 08:48:25;;;;;;;17.65;12.43;;;3.30;99.90;;;;;;5070579;28;20591;-74
2020/12/10 08:51:11;;;;;;;19.83;12.68;;;3.50;99.90;;;;;;5070171;28;20208;-74
2020/12/10 08:53:57;;;;;;;17.95;11.30;;;3.60;99.90;;;;;;5072666;28;20647;-74
2020/12/10 08:56:42;;;;;;;17.00;11.10;;;3.60;99.90;;;;;;5073077;28;20691;-76
2020/12/10 08:59:27;;;;;;;16.50;10.60;;;3.60;99.90;;;;;;5068409;28;20223;-74
2020/12/10 09:02:12;;;;;;;16.10;11.52;;;3.70;99.90;;;;;;5070477;28;20872;-74
2020/12/10 09:04:57;;;;;;;17.60;11.77;;;3.70;99.90;;;;;;5070125;28;20539;-74
2020/12/10 09:07:44;;;;;;;20.77;12.85;;;3.70;99.90;;;;;;5072619;28;20577;-74
2020/12/10 09:10:29;;;;;;;19.85;12.93;;;3.70;99.90;;;;;;5075224;28;20207;-75
2020/12/10 09:13:15;;;;;;;18.23;12.60;;;3.80;99.90;;;;;;5048328;28;20197;-74
2020/12/10 09:16:00;;;;;;;20.58;14.15;;;3.70;99.90;;;;;;5047564;28;20208;-75
2020/12/10 09:18:45;;;;;;;20.02;13.82;;;3.80;99.90;;;;;;5050620;28;20707;-74
2020/12/10 09:21:34;;;;;;;19.38;13.40;;;3.80;99.90;;;;;;5052609;28;20308;-74
2020/12/10 09:24:20;;;;;;;20.48;14.02;;;3.70;99.90;;;;;;5056365;28;20200;-74
2020/12/10 09:27:07;;;;;;;19.42;13.80;;;3.80;99.90;;;;;;5061350;28;20208;-74
2020/12/10 09:29:52;;;;;;;22.60;14.48;;;3.70;99.90;;;;;;5069164;28;20200;-74
2020/12/10 09:32:39;;;;;;;19.73;13.52;;;3.80;99.90;;;;;;5072050;28;20200;-74
2020/12/10 09:35:25;;;;;;;19.15;12.07;;;3.80;99.90;;;;;;5072385;28;20204;-74
2020/12/10 09:38:11;;;;;;;18.10;12.32;;;3.90;99.90;;;;;;5069209;28;20593;-74
2020/12/10 09:40:58;;;;;;;20.70;12.60;;;4.00;99.90;;;;;;5067935;28;20226;-74
2020/12/10 09:43:44;;;;;;;16.98;11.60;;;4.00;99.90;;;;;;5070096;28;20201;-75
2020/12/10 09:46:32;;;;;;;20.05;12.32;;;3.90;99.90;;;;;;5071910;28;20204;-75
2020/12/10 09:49:17;;;;;;;18.02;12.30;;;3.90;99.90;;;;;;5069902;28;20201;-74
2020/12/10 09:52:03;;;;;;;20.65;13.75;;;4.00;99.90;;;;;;5069137;28;20220;-74
2020/12/10 09:54:58;;;;;;;21.42;13.70;;;4.10;99.90;;;;;;5069011;28;20203;-74
2020/12/10 09:57:44;;;;;;;22.15;14.98;;;4.20;99.90;;;;;;5071525;28;20248;-75
2020/12/10 10:00:29;;;;;;;23.30;15.52;;;4.20;99.90;;;;;;5070076;28;20208;-75
2020/12/10 10:03:14;;;;;;;21.90;14.40;;;4.20;99.90;;;;;;5069264;28;20274;-74
2020/12/10 10:05:59;;;;;;;21.23;13.50;;;4.10;99.90;;;;;;5069156;28;20322;-74
2020/12/10 10:08:46;;;;;;;22.95;14.95;;;4.20;99.90;;;;;;5065916;28;20231;-74
2020/12/10 10:11:32;;;;;;;19.98;14.63;;;4.30;99.90;;;;;;5069027;28;20699;-75
2020/12/10 10:14:17;;;;;;;20.52;13.52;;;4.40;99.90;;;;;;5068419;28;20193;-74
2020/12/10 10:17:05;;;;;;;23.40;14.35;;;4.40;99.90;;;;;;5062744;28;20212;-75
2020/12/10 10:19:50;;;;;;;22.20;15.13;;;4.30;99.90;;;;;;5067089;28;20611;-75
2020/12/10 10:22:38;;;;;;;24.42;14.73;;;4.10;99.90;;;;;;5065360;28;20221;-74
2020/12/10 10:25:23;;;;;;;21.67;14.30;;;4.00;99.90;;;;;;5062842;28;20257;-75
2020/12/10 10:28:09;;;;;;;25.05;14.60;;;4.00;99.90;;;;;;5049119;28;20252;-74
2020/12/10 10:30:55;;;;;;;25.95;16.63;;;4.00;99.90;;;;;;5067151;28;20234;-75
2020/12/10 10:33:40;;;;;;;25.70;15.35;;;4.00;99.90;;;;;;5068353;28;20203;-74
2020/12/10 10:36:25;;;;;;;23.05;14.75;;;4.00;99.90;;;;;;5050767;28;20201;-75
2020/12/10 10:39:10;;;;;;;26.15;14.65;;;4.00;99.90;;;;;;5067068;28;20585;-75
2020/12/10 10:41:56;;;;;;;20.95;13.88;;;3.80;99.90;;;;;;5067357;28;20223;-74
2020/12/10 10:44:41;;;;;;;22.30;13.93;;;3.70;99.90;;;;;;5056210;28;20201;-74
2020/12/10 10:47:27;;;;;;;26.98;14.75;;;3.50;99.90;;;;;;5048044;28;20292;-74
2020/12/10 10:50:12;;;;;;;27.33;16.55;;;3.50;99.90;;;;;;5053683;28;20216;-74
2020/12/10 10:52:57;;;;;;;21.38;13.82;;;3.50;99.90;;;;;;5070377;28;20208;-75
2020/12/10 10:55:42;;;;;;;29.95;15.95;;;3.50;99.90;;;;;;5066988;28;20271;-74
2020/12/10 10:58:27;;;;;;;21.50;13.95;;;3.60;99.90;;;;;;5059500;28;20266;-74
2020/12/10 11:01:12;;;;;;;24.63;14.38;;;3.80;99.90;;;;;;5050353;28;20587;-73
2020/12/10 11:03:58;;;;;;;25.27;16.23;;;3.80;99.90;;;;;;5060935;28;20204;-72
2020/12/10 11:06:43;;;;;;;26.67;16.15;;;3.80;99.90;;;;;;5051158;28;20208;-72
2020/12/10 11:09:28;;;;;;;23.20;15.10;;;3.60;99.90;;;;;;5066796;28;20284;-74
2020/12/10 11:12:13;;;;;;;26.58;15.63;;;3.50;99.90;;;;;;5053511;28;20188;-72
2020/12/10 11:14:59;;;;;;;24.60;14.68;;;3.70;99.90;;;;;;5062027;28;20323;-72
2020/12/10 11:17:44;;;;;;;23.65;13.50;;;3.60;99.90;;;;;;5063391;28;20224;-74
2020/12/10 11:20:30;;;;;;;24.60;15.50;;;3.50;99.90;;;;;;5059953;28;20402;-73
2020/12/10 11:23:15;;;;;;;24.05;14.65;;;3.50;99.90;;;;;;5060890;28;20223;-73
2020/12/10 11:26:00;;;;;;;22.48;14.00;;;3.50;99.90;;;;;;5060904;28;20208;-72
2020/12/10 11:28:45;;;;;;;23.05;13.93;;;3.60;99.90;;;;;;5066303;28;20228;-72
2020/12/10 11:31:30;;;;;;;20.48;13.30;;;3.60;99.90;;;;;;5069311;28;20197;-72
2020/12/10 11:34:16;;;;;;;23.58;14.90;;;3.70;99.90;;;;;;5069428;28;20250;-73
2020/12/10 11:37:02;;;;;;;22.60;14.82;;;3.70;99.90;;;;;;5067506;28;20188;-73
2020/12/10 11:39:47;;;;;;;23.77;15.50;;;3.80;99.90;;;;;;5055758;28;20232;-71
2020/12/10 11:42:32;;;;;;;23.85;15.15;;;3.90;99.90;;;;;;5070679;28;20196;-75
2020/12/10 11:45:18;;;;;;;21.65;14.90;;;3.80;99.90;;;;;;5062335;28;20686;-74
2020/12/10 11:48:04;;;;;;;26.52;15.43;;;3.90;99.90;;;;;;5065436;28;20286;-74
2020/12/10 11:50:49;;;;;;;24.80;14.80;;;3.90;99.90;;;;;;5063542;28;20573;-73
2020/12/10 11:53:36;;;;;;;24.05;14.75;;;3.90;99.90;;;;;;5064224;28;20384;-74
2020/12/10 11:56:21;;;;;;;19.73;13.27;;;4.00;99.90;;;;;;5069971;28;20246;-74
2020/12/10 11:59:06;;;;;;;24.35;14.05;;;4.00;99.90;;;;;;5054007;28;20243;-74
2020/12/10 12:01:51;;;;;;;24.02;13.35;;;4.00;99.90;;;;;;5068850;28;20331;-74
2020/12/10 12:04:37;;;;;;;21.38;14.55;;;3.90;99.90;;;;;;5060847;28;20687;-74
2020/12/10 12:07:22;;;;;;;25.63;14.52;;;3.80;99.90;;;;;;5065602;28;20231;-74
2020/12/10 12:10:08;;;;;;;22.45;14.50;;;3.70;99.90;;;;;;5068099;28;20197;-74
2020/12/10 12:12:53;;;;;;;22.80;14.18;;;3.80;99.90;;;;;;5069273;28;20236;-74
2020/12/10 12:15:38;;;;;;;22.90;13.57;;;3.80;99.90;;;;;;5059790;28;20262;-74
2020/12/10 12:18:26;;;;;;;25.50;16.17;;;3.80;99.90;;;;;;5066009;28;20231;-74
2020/12/10 12:21:11;;;;;;;23.52;13.88;;;3.90;99.90;;;;;;5061613;28;20213;-74
2020/12/10 12:23:57;;;;;;;22.65;14.38;;;3.60;99.90;;;;;;5061320;28;20286;-74
2020/12/10 12:26:43;;;;;;;22.75;15.45;;;3.50;99.90;;;;;;5072389;28;20273;-74
2020/12/10 12:29:28;;;;;;;26.23;16.70;;;3.50;99.90;;;;;;5063746;28;20331;-74
2020/12/10 12:32:13;;;;;;;24.00;14.95;;;3.40;99.90;;;;;;5061718;28;20210;-73
2020/12/10 12:34:58;;;;;;;22.70;15.35;;;3.40;99.90;;;;;;5064737;28;20212;-74
2020/12/10 12:37:45;;;;;;;28.75;15.48;;;3.50;99.90;;;;;;5063245;28;20259;-74
2020/12/10 12:40:31;;;;;;;23.15;15.15;;;3.50;99.90;;;;;;5069622;28;20627;-73
2020/12/10 12:43:17;;;;;;;23.85;15.43;;;3.60;99.90;;;;;;5063025;28;20234;-74
2020/12/10 12:46:02;;;;;;;27.73;16.42;;;3.70;99.90;;;;;;5061326;28;20203;-74
2020/12/10 12:48:47;;;;;;;28.10;17.13;;;3.80;99.90;;;;;;5067711;28;20227;-74
2020/12/10 12:51:32;;;;;;;22.88;15.52;;;3.90;99.90;;;;;;5068326;28;20249;-74
2020/12/10 12:54:17;;;;;;;23.52;16.15;;;4.10;99.90;;;;;;5063844;28;20200;-74
2020/12/10 12:57:02;;;;;;;23.67;16.10;;;4.10;99.90;;;;;;5063913;28;20211;-74
2020/12/10 12:59:48;;;;;;;20.92;16.52;;;4.20;99.90;;;;;;5058657;28;20220;-75
2020/12/10 13:02:34;;;;;;;24.40;16.15;;;4.20;99.90;;;;;;5069208;28;20334;-75
2020/12/10 13:05:19;;;;;;;24.23;16.27;;;3.90;99.90;;;;;;5071663;28;20239;-75
2020/12/10 13:08:05;;;;;;;25.98;16.10;;;4.00;99.90;;;;;;5061624;28;20220;-75
2020/12/10 13:10:50;;;;;;;26.20;16.60;;;4.00;99.90;;;;;;5058701;28;20399;-74
2020/12/10 13:13:36;;;;;;;33.22;22.58;;;4.00;99.90;;;;;;5060614;28;20211;-74
2020/12/10 13:16:23;;;;;;;43.85;29.08;;;4.00;99.90;;;;;;5065750;28;20204;-75
2020/12/10 13:19:08;;;;;;;29.08;18.92;;;4.00;99.90;;;;;;5062312;28;20227;-74
2020/12/10 13:21:53;;;;;;;29.55;18.38;;;3.90;99.90;;;;;;5068344;28;20204;-74
2020/12/10 13:24:38;;;;;;;34.78;19.48;;;4.00;99.90;;;;;;5068354;28;20208;-75
2020/12/10 13:27:24;;;;;;;53.45;28.02;;;4.00;99.90;;;;;;5064328;28;20334;-74
2020/12/10 13:30:09;;;;;;;51.95;26.90;;;4.00;99.90;;;;;;5067164;28;20217;-74
2020/12/10 13:32:55;;;;;;;31.33;19.27;;;4.10;99.90;;;;;;5068891;28;20311;-75
2020/12/10 13:35:40;;;;;;;28.65;17.48;;;4.20;99.90;;;;;;5066721;28;20269;-74
2020/12/10 13:38:25;;;;;;;27.27;18.20;;;4.30;99.90;;;;;;5065706;28;20236;-75
2020/12/10 13:41:11;;;;;;;24.38;16.00;;;4.30;99.90;;;;;;5056791;28;20205;-75
2020/12/10 13:43:56;;;;;;;25.48;16.27;;;4.40;99.90;;;;;;5068049;28;20207;-74
2020/12/10 13:46:41;;;;;;;26.27;16.20;;;4.40;99.90;;;;;;5067851;28;20249;-74
2020/12/10 13:49:28;;;;;;;26.17;17.10;;;4.20;99.90;;;;;;5067393;28;20201;-74
2020/12/10 13:52:13;;;;;;;26.60;16.05;;;4.30;99.90;;;;;;5059338;28;20693;-74
2020/12/10 13:54:58;;;;;;;25.25;15.63;;;4.30;99.90;;;;;;5066498;28;20325;-75
2020/12/10 13:57:44;;;;;;;27.40;15.15;;;4.40;99.90;;;;;;5070727;28;20235;-75
2020/12/10 14:00:29;;;;;;;23.77;15.38;;;4.40;99.90;;;;;;5060535;28;20604;-74
2020/12/10 14:03:15;;;;;;;25.30;16.35;;;4.30;99.90;;;;;;5066994;28;20246;-74
2020/12/10 14:06:02;;;;;;;22.85;14.77;;;4.30;99.90;;;;;;5060871;28;20204;-75
2020/12/10 14:08:47;;;;;;;24.27;16.80;;;4.30;99.90;;;;;;5069297;28;20224;-74
2020/12/10 14:11:32;;;;;;;23.48;15.68;;;4.30;99.90;;;;;;5065052;28;20312;-74
2020/12/10 14:14:17;;;;;;;24.20;16.30;;;4.30;99.90;;;;;;5067956;28;20615;-74
2020/12/10 14:17:02;;;;;;;23.77;16.55;;;4.40;99.90;;;;;;5057305;28;20327;-75